Terminal Aerodrome Forecast
Issued by NWS

Home | Current Version | Previous Version | Graphics & Text | Print | Product List | Glossary Off
Versions: 1 2 3 4 5 6 7 8 9 10 11 12 13 14 15 16 17 18 19 20 21 22 23 24 25 26 27 28 29 30 31 32

000
FTUS43 KGRB 281136
TAFRHI
TAF
KRHI 281136Z 2812/2912 VRB03KT P6SM SKC
      TEMPO 2812/2813 5SM BR
     FM281300 17009KT P6SM FEW100 BKN200
     FM281600 17012KT P6SM SCT050 BKN100
     FM282000 17012KT P6SM VCSH BKN050 OVC100
     FM290200 19006KT 5SM -SHRA OVC035
      TEMPO 2903/2907 2SM TSRA BKN020CB=

USA.gov is the U.S. government's official web portal to all federal, state and local government web resources and services.